Time;durP1;ratioP1;P1;durP2;ratioP2;P2;SDS_P1;SDS_P2;PMS_P1;PMS_P2;Temp;Humidity;BMP_temperature;BMP_pressure;BME280_temperature;BME280_humidity;BME280_pressure;Samples;Min_cycle;Max_cycle;Signal;HPM_P1;HPM_P2
2022/05/31 00:01:20;;;;;;;3.63;1.42;;;;;;;16.33;40.37;100644.75;5011256;28;20556;-64
2022/05/31 00:03:48;;;;;;;4.68;1.20;;;;;;;16.45;40.22;100644.69;5010683;28;20058;-63
2022/05/31 00:06:15;;;;;;;3.10;1.42;;;;;;;16.71;39.81;100642.28;4994052;28;20053;-63
2022/05/31 00:08:45;;;;;;;5.03;1.38;;;;;;;16.81;39.67;100636.19;4990647;28;20084;-64
2022/05/31 00:11:13;;;;;;;4.18;1.52;;;;;;;16.67;39.95;100639.41;4974762;28;20066;-64
2022/05/31 00:13:40;;;;;;;5.68;1.75;;;;;;;16.44;40.15;100638.31;4958410;28;20062;-64
2022/05/31 00:16:07;;;;;;;5.03;1.48;;;;;;;16.59;40.14;100634.81;4976010;28;20073;-64
2022/05/31 00:18:35;;;;;;;4.78;1.52;;;;;;;16.37;40.35;100642.91;4976098;28;20498;-64
2022/05/31 00:21:04;;;;;;;6.60;1.85;;;;;;;16.23;40.63;100646.06;4974885;28;20064;-63
2022/05/31 00:23:31;;;;;;;6.13;1.90;;;;;;;16.33;40.56;100639.19;4995168;28;20058;-63
2022/05/31 00:25:59;;;;;;;4.85;1.80;;;;;;;16.24;40.82;100644.09;4994052;28;20076;-63
2022/05/31 00:28:26;;;;;;;5.82;2.00;;;;;;;16.41;40.54;100641.81;4994289;28;20054;-63
2022/05/31 00:30:54;;;;;;;5.80;2.08;;;;;;;16.34;40.95;100638.03;4992909;28;20050;-63
2022/05/31 00:33:21;;;;;;;5.03;1.92;;;;;;;16.21;40.78;100645.63;4993582;28;20066;-63
2022/05/31 00:35:49;;;;;;;4.70;1.90;;;;;;;16.10;41.04;100647.28;4981299;28;20534;-63
2022/05/31 00:38:17;;;;;;;5.80;2.00;;;;;;;16.24;40.64;100644.09;4997841;28;20086;-63
2022/05/31 00:40:44;;;;;;;7.07;1.88;;;;;;;16.07;40.77;100641.59;4997692;28;20520;-63
2022/05/31 00:43:22;;;;;;;4.38;1.73;;;;;;;16.00;40.94;100639.44;4996485;28;20048;-66
2022/05/31 00:45:57;;;;;;;5.65;1.77;;;;;;;16.01;40.80;100643.81;4996372;28;20062;-71
2022/05/31 00:48:31;;;;;;;5.38;1.70;;;;;;;15.92;41.07;100639.56;4999140;28;20061;-64
2022/05/31 00:51:18;;;;;;;6.97;1.75;;;;;;;15.97;41.00;100640.13;4996754;28;20062;-65
2022/05/31 00:53:56;;;;;;;4.85;1.98;;;;;;;16.05;40.97;100636.41;5012156;28;20042;-64
2022/05/31 00:56:26;;;;;;;5.53;2.05;;;;;;;16.01;41.03;100634.66;4997700;28;20058;-63
2022/05/31 00:59:00;;;;;;;4.38;1.90;;;;;;;15.96;40.96;100646.03;4997042;28;20058;-64
2022/05/31 01:01:30;;;;;;;4.90;1.50;;;;;;;16.00;41.25;100638.63;5014019;28;20050;-64
2022/05/31 01:03:58;;;;;;;5.88;1.38;;;;;;;15.96;41.27;100637.69;4998559;28;20058;-64
2022/05/31 01:06:26;;;;;;;5.30;1.45;;;;;;;16.12;40.83;100633.03;5010999;28;20069;-70
2022/05/31 01:08:56;;;;;;;5.03;1.73;;;;;;;16.01;40.95;100635.47;4997455;28;20050;-63
2022/05/31 01:11:44;;;;;;;4.22;1.48;;;;;;;16.17;40.87;100622.47;4990083;28;20065;-71
2022/05/31 01:14:43;;;;;;;4.30;1.48;;;;;;;16.20;40.57;100629.28;4975600;28;20058;-63
2022/05/31 01:17:19;;;;;;;5.18;1.83;;;;;;;16.24;40.93;100624.63;4996676;28;20054;-64
2022/05/31 01:20:06;;;;;;;2.58;1.20;;;;;;;16.37;40.31;100624.22;4979178;28;20051;-64
2022/05/31 01:22:55;;;;;;;4.60;1.38;;;;;;;16.34;40.59;100624.94;4993603;28;20050;-64
2022/05/31 01:25:32;;;;;;;5.18;1.58;;;;;;;16.24;40.46;100630.19;4994017;28;20046;-71
2022/05/31 01:28:18;;;;;;;4.10;1.50;;;;;;;16.26;40.46;100625.91;4998098;28;20065;-64
2022/05/31 01:30:58;;;;;;;5.25;1.10;;;;;;;16.03;40.98;100629.56;4989556;28;20608;-64
2022/05/31 01:33:34;;;;;;;3.78;1.20;;;;;;;15.96;41.17;100627.41;4993297;28;20043;-63
2022/05/31 01:36:06;;;;;;;4.18;1.52;;;;;;;16.46;40.36;100627.69;4981279;28;20062;-64
2022/05/31 01:38:42;;;;;;;4.43;1.60;;;;;;;16.21;40.94;100620.59;4961059;28;20553;-63
2022/05/31 01:41:24;;;;;;;4.55;1.55;;;;;;;15.94;41.28;100624.16;4993274;28;20051;-63
2022/05/31 01:43:54;;;;;;;5.13;1.48;;;;;;;15.95;41.35;100625.78;4961347;28;20065;-64
2022/05/31 01:46:30;;;;;;;6.00;1.42;;;;;;;16.14;40.93;100625.97;4984959;28;20061;-64
2022/05/31 01:48:59;;;;;;;4.18;1.30;;;;;;;16.17;40.77;100619.69;4988974;28;20055;-64
2022/05/31 01:51:27;;;;;;;6.63;1.60;;;;;;;16.24;41.01;100632.97;4978153;28;20053;-70
2022/05/31 01:53:55;;;;;;;6.07;1.80;;;;;;;16.28;40.54;100625.56;4960981;28;20295;-64
2022/05/31 01:56:24;;;;;;;2.88;1.20;;;;;;;16.20;40.79;100621.75;4976427;28;20054;-70
2022/05/31 01:58:54;;;;;;;3.30;1.17;;;;;;;16.23;40.50;100625.81;4985755;28;20055;-71
2022/05/31 02:01:30;;;;;;;4.15;1.15;;;;;;;16.27;40.51;100635.84;4996212;28;20061;-70
2022/05/31 02:03:58;;;;;;;3.05;1.25;;;;;;;16.18;40.74;100634.41;4979137;28;20155;-69
2022/05/31 02:06:32;;;;;;;5.28;1.33;;;;;;;16.35;40.82;100634.09;4997399;28;20055;-64
2022/05/31 02:09:01;;;;;;;3.58;1.15;;;;;;;16.53;40.47;100635.41;5010904;28;20076;-70
2022/05/31 02:11:29;;;;;;;5.40;1.38;;;;;;;16.55;40.15;100631.13;5012663;28;20061;-63
2022/05/31 02:14:06;;;;;;;3.30;1.38;;;;;;;16.44;40.40;100629.19;4995761;28;20050;-71
2022/05/31 02:16:34;;;;;;;6.82;1.55;;;;;;;16.44;40.21;100634.75;4996100;28;20619;-71
2022/05/31 02:19:25;;;;;;;4.80;1.23;;;;;;;16.36;40.48;100635.69;4983863;28;20050;-70
2022/05/31 02:22:15;;;;;;;4.15;1.50;;;;;;;16.41;40.32;100635.44;4967045;28;20522;-64
2022/05/31 02:24:42;;;;;;;4.90;1.52;;;;;;;16.49;40.36;100634.53;4956593;28;20054;-64
2022/05/31 02:27:11;;;;;;;5.20;1.30;;;;;;;16.50;40.02;100627.78;4977660;28;20058;-64
2022/05/31 02:29:41;;;;;;;;;;;;;;;16.28;40.91;100634.72;4976919;28;20054;-71
2022/05/31 02:32:10;;;;;;;7.03;1.20;;;;;;;16.36;40.63;100636.53;4995837;28;19933;-71
2022/05/31 02:34:47;;;;;;;6.10;1.50;;;;;;;16.48;40.21;100642.06;4996939;28;20053;-71
2022/05/31 02:37:18;;;;;;;5.75;1.90;;;;;;;16.47;40.23;100640.44;4991101;28;20050;-64
2022/05/31 02:39:46;;;;;;;7.45;1.90;;;;;;;16.54;40.27;100639.84;4996765;28;20054;-63
2022/05/31 02:42:15;;;;;;;3.63;1.60;;;;;;;16.64;40.00;100640.13;4978277;28;20499;-63
2022/05/31 02:44:42;;;;;;;5.15;1.85;;;;;;;16.70;40.54;100638.69;4978670;28;20674;-64
2022/05/31 02:47:10;;;;;;;4.72;1.52;;;;;;;16.75;40.03;100629.28;5011755;28;20059;-63
2022/05/31 02:49:39;;;;;;;5.13;1.30;;;;;;;16.78;40.12;100629.38;4994764;28;20046;-70
2022/05/31 02:52:07;;;;;;;4.40;1.48;;;;;;;16.78;39.93;100626.59;5011372;28;20058;-64
2022/05/31 02:54:34;;;;;;;5.15;1.67;;;;;;;16.77;39.78;100618.63;4993882;28;20053;-70
2022/05/31 02:57:17;;;;;;;7.82;2.72;;;;;;;16.74;39.77;100619.31;4996378;28;20441;-70
2022/05/31 03:00:05;;;;;;;6.60;2.25;;;;;;;16.55;40.28;100616.41;4994951;28;20058;-63
2022/05/31 03:02:50;;;;;;;3.83;1.50;;;;;;;16.48;40.81;100617.03;4996368;28;20046;-63
2022/05/31 03:05:26;;;;;;;5.53;1.70;;;;;;;16.52;40.90;100620.72;4992443;28;20054;-71
2022/05/31 03:08:13;;;;;;;9.60;1.92;;;;;;;16.11;42.95;100628.63;4996236;28;20054;-71
2022/05/31 03:10:54;;;;;;;5.78;1.98;;;;;;;15.96;44.02;100637.69;4994361;28;20065;-70
2022/05/31 03:13:24;;;;;;;5.65;2.22;;;;;;;15.68;45.38;100632.91;4994176;28;20414;-70
2022/05/31 03:15:56;;;;;;;4.95;1.98;;;;;;;15.40;47.15;100639.50;4996345;28;20069;-65
2022/05/31 03:18:28;;;;;;;8.10;2.15;;;;;;;15.13;48.35;100646.50;5006068;28;20046;-70
2022/05/31 03:20:58;;;;;;;5.47;2.25;;;;;;;15.35;48.11;100632.19;4975026;28;20157;-63
2022/05/31 03:23:31;;;;;;;7.05;3.20;;;;;;;15.18;48.51;100635.22;4959488;28;20055;-71
2022/05/31 03:26:00;;;;;;;9.48;3.08;;;;;;;14.55;50.88;100633.00;4976758;28;20061;-71
2022/05/31 03:28:28;;;;;;;7.10;3.35;;;;;;;14.20;52.61;100634.44;4975265;28;20055;-70
2022/05/31 03:30:56;;;;;;;10.73;3.17;;;;;;;14.38;52.28;100633.19;4988351;28;20054;-70
2022/05/31 03:33:25;;;;;;;7.07;2.72;;;;;;;14.74;51.31;100632.47;4996180;28;20145;-70
2022/05/31 03:35:53;;;;;;;6.93;3.08;;;;;;;15.08;50.29;100640.41;4995567;28;20069;-71
2022/05/31 03:38:36;;;;;;;9.68;2.80;;;;;;;15.19;50.03;100650.69;5008336;28;20051;-64
2022/05/31 03:41:04;;;;;;;10.10;2.80;;;;;;;14.94;50.88;100651.81;4978538;28;20062;-63
2022/05/31 03:43:37;;;;;;;6.22;3.10;;;;;;;14.74;51.73;100651.88;4977572;28;20206;-63
2022/05/31 03:46:25;;;;;;;11.45;2.90;;;;;;;14.66;52.17;100653.59;4989045;28;20153;-70
2022/05/31 03:49:24;;;;;;;5.72;2.70;;;;;;;14.54;52.35;100645.22;4993806;28;20050;-70
2022/05/31 03:51:56;;;;;;;7.70;2.80;;;;;;;14.39;53.06;100641.16;5007616;28;20042;-63
2022/05/31 03:54:38;;;;;;;8.32;2.65;;;;;;;14.52;52.73;100647.56;4978117;28;20051;-63
2022/05/31 03:57:17;;;;;;;5.70;2.70;;;;;;;14.53;52.65;100647.22;4978277;28;20054;-70
2022/05/31 03:59:50;;;;;;;7.53;2.75;;;;;;;14.32;53.50;100651.16;4994271;28;20058;-69
2022/05/31 04:02:21;;;;;;;;;;;;;;;14.37;53.50;100640.66;5011120;28;20053;-62
2022/05/31 04:04:48;;;;;;;9.38;3.30;;;;;;;14.54;53.22;100640.50;4993801;28;19922;-63
2022/05/31 04:07:15;;;;;;;6.10;2.42;;;;;;;14.51;52.97;100638.41;4994158;28;20046;-63
2022/05/31 04:09:42;;;;;;;8.70;2.72;;;;;;;14.71;52.03;100631.22;4998671;28;20062;-63
2022/05/31 04:12:11;;;;;;;9.68;2.45;;;;;;;14.62;52.62;100634.06;5000898;28;20525;-62
2022/05/31 04:14:58;;;;;;;5.30;2.28;;;;;;;14.77;52.15;100632.59;4998629;28;20050;-70
2022/05/31 04:17:26;;;;;;;11.65;2.47;;;;;;;14.77;52.31;100631.81;5000790;28;20054;-71
2022/05/31 04:19:53;;;;;;;6.18;2.33;;;;;;;14.51;52.67;100630.09;4995333;28;20063;-70
2022/05/31 04:22:21;;;;;;;6.90;2.70;;;;;;;14.61;53.05;100626.06;4971920;28;20554;-70
2022/05/31 04:24:54;;;;;;;9.27;2.90;;;;;;;14.68;52.66;100634.63;5006847;28;20046;-64
2022/05/31 04:28:00;;;;;;;6.90;2.90;;;;;;;14.82;51.99;100632.38;4960065;29;20054;-62
2022/05/31 04:30:50;;;;;;;6.13;2.45;;;;;;;14.10;54.19;100638.44;4920839;29;20181;-70
2022/05/31 04:33:37;;;;;;;12.13;2.85;;;;;;;13.92;55.50;100645.28;4990579;28;20058;-71
2022/05/31 04:36:07;;;;;;;11.20;2.65;;;;;;;14.05;55.54;100643.38;4999989;28;20255;-72
2022/05/31 04:38:36;;;;;;;12.18;2.95;;;;;;;14.17;55.09;100643.44;5016480;28;20062;-71
2022/05/31 04:41:21;;;;;;;7.28;2.58;;;;;;;14.10;55.47;100646.75;4999989;28;20054;-63
2022/05/31 04:43:56;;;;;;;13.27;3.05;;;;;;;14.29;55.22;100649.88;5000246;28;20054;-62
2022/05/31 04:46:31;;;;;;;9.98;2.80;;;;;;;14.30;54.87;100647.91;5015850;28;20046;-70
2022/05/31 04:49:17;;;;;;;11.68;2.95;;;;;;;14.34;55.08;100651.63;5000325;28;20466;-63
2022/05/31 04:51:44;;;;;;;10.15;3.22;;;;;;;14.70;54.33;100656.50;4982917;28;20429;-63
2022/05/31 04:54:18;;;;;;;10.32;2.90;;;;;;;14.68;54.06;100644.94;5000202;28;20058;-64
2022/05/31 04:57:00;;;;;;;8.35;2.97;;;;;;;14.63;54.36;100640.41;4999754;28;20053;-63
2022/05/31 04:59:29;;;;;;;5.28;2.60;;;;;;;14.72;53.98;100645.84;4998884;28;20455;-64
2022/05/31 05:01:57;;;;;;;9.70;2.90;;;;;;;15.02;53.03;100645.34;5000111;28;20046;-64
2022/05/31 05:04:46;;;;;;;8.70;2.83;;;;;;;14.78;53.31;100659.19;5013209;28;20065;-71
2022/05/31 05:07:32;;;;;;;6.18;2.60;;;;;;;14.39;54.12;100654.19;5001468;28;20175;-72
2022/05/31 05:10:00;;;;;;;9.85;2.75;;;;;;;14.03;55.36;100648.44;4998266;28;20054;-71
2022/05/31 05:12:28;;;;;;;7.85;2.70;;;;;;;14.24;55.20;100654.78;5001673;28;20043;-64
2022/05/31 05:15:17;;;;;;;8.95;2.42;;;;;;;14.38;54.64;100663.66;4983954;28;20521;-63
2022/05/31 05:17:45;;;;;;;6.45;2.72;;;;;;;14.39;54.42;100668.03;5000365;28;20157;-71
2022/05/31 05:20:13;;;;;;;10.25;2.65;;;;;;;14.28;54.79;100672.38;4962298;28;20055;-71
2022/05/31 05:22:41;;;;;;;7.13;2.60;;;;;;;14.27;54.92;100670.75;4996529;28;20138;-63
2022/05/31 05:25:09;;;;;;;9.80;2.78;;;;;;;14.53;54.60;100669.38;5013453;28;20047;-63
2022/05/31 05:27:41;;;;;;;8.15;2.63;;;;;;;14.49;54.17;100670.38;4980730;28;20050;-65
2022/05/31 05:33:23;;;;;;;9.15;2.53;;;;;;;14.72;53.21;100673.59;4978761;28;20051;-64
2022/05/31 05:36:11;;;;;;;12.45;2.92;;;;;;;14.66;53.52;100670.25;4949924;28;20066;-63
2022/05/31 05:38:38;;;;;;;12.65;3.05;;;;;;;14.98;52.90;100668.56;4977018;28;20050;-64
2022/05/31 05:41:35;;;;;;;12.15;2.58;;;;;;;15.10;52.63;100674.16;4978312;28;20055;-64
2022/05/31 05:44:21;;;;;;;15.18;2.85;;;;;;;15.12;52.51;100680.16;4978801;28;20051;-63
2022/05/31 05:46:48;;;;;;;15.55;3.30;;;;;;;15.23;52.29;100682.16;4976056;28;20075;-71
2022/05/31 05:49:16;;;;;;;15.43;3.05;;;;;;;15.15;52.28;100674.72;4978122;28;20494;-70
2022/05/31 05:51:44;;;;;;;12.52;2.83;;;;;;;15.32;51.86;100684.81;4960883;28;20062;-70
2022/05/31 05:54:30;;;;;;;9.80;2.95;;;;;;;15.19;52.10;100685.94;4991069;28;20107;-72
2022/05/31 05:57:27;;;;;;;12.75;3.10;;;;;;;15.28;51.51;100690.25;4950320;29;20063;-71
2022/05/31 06:00:22;;;;;;;11.15;2.80;;;;;;;15.27;52.01;100693.38;4943507;29;20495;-71
2022/05/31 06:03:02;;;;;;;8.88;2.90;;;;;;;15.25;52.11;100696.50;4959635;28;20059;-65
2022/05/31 06:05:53;;;;;;;9.65;3.15;;;;;;;15.35;51.97;100686.88;4978212;28;20057;-64
2022/05/31 06:08:26;;;;;;;15.13;3.38;;;;;;;15.28;51.62;100694.97;4977093;28;20427;-63
2022/05/31 06:11:36;;;;;;;13.20;3.10;;;;;;;15.23;51.75;100693.25;4992248;28;20054;-64
2022/05/31 06:14:11;;;;;;;9.07;3.10;;;;;;;15.25;51.80;100692.91;4941008;28;20050;-63
2022/05/31 06:16:44;;;;;;;8.48;2.95;;;;;;;14.86;52.54;100693.50;4980328;28;20054;-64
2022/05/31 06:19:15;;;;;;;10.35;3.13;;;;;;;14.78;53.04;100700.78;4971921;28;20054;-65
2022/05/31 06:21:45;;;;;;;12.85;3.03;;;;;;;14.97;52.37;100697.47;4977629;28;20077;-63
2022/05/31 06:24:24;;;;;;;8.55;3.20;;;;;;;15.52;51.11;100695.00;4986374;28;20051;-63
2022/05/31 06:26:55;;;;;;;14.20;3.03;;;;;;;15.47;51.03;100698.03;4980047;28;20054;-63
2022/05/31 06:29:22;;;;;;;9.30;3.20;;;;;;;15.77;50.59;100691.09;5011766;28;20065;-64
2022/05/31 06:31:50;;;;;;;8.05;3.13;;;;;;;16.00;50.14;100694.19;5012299;28;20406;-64
2022/05/31 06:34:26;;;;;;;11.82;3.70;;;;;;;15.50;50.55;100700.91;4995780;28;20053;-64
2022/05/31 06:37:16;;;;;;;9.75;3.08;;;;;;;15.58;50.28;100702.78;4995966;28;20047;-65
2022/05/31 06:39:45;;;;;;;9.35;3.13;;;;;;;15.88;49.52;100691.44;5012340;28;20057;-63
2022/05/31 06:42:35;;;;;;;11.50;3.40;;;;;;;15.67;49.44;100697.13;4979608;28;20058;-63
2022/05/31 06:45:23;;;;;;;9.18;3.30;;;;;;;15.81;49.00;100694.78;4996013;28;20046;-64
2022/05/31 06:48:22;;;;;;;12.23;3.67;;;;;;;15.83;49.57;100697.22;4993785;28;20059;-64
2022/05/31 06:51:14;;;;;;;8.43;3.58;;;;;;;15.93;48.80;100693.97;4978769;28;20065;-64
2022/05/31 06:57:23;;;;;;;12.80;3.35;;;;;;;15.94;48.02;100701.13;4992128;28;20062;-71
2022/05/31 07:00:00;;;;;;;12.00;3.00;;;;;;;16.04;47.88;100706.22;4939522;29;20086;-71
2022/05/31 07:02:28;;;;;;;8.77;3.20;;;;;;;15.56;48.41;100702.31;4956184;29;20066;-71
2022/05/31 07:04:55;;;;;;;8.73;3.05;;;;;;;15.31;49.38;100699.81;4972439;28;20075;-71
2022/05/31 07:07:22;;;;;;;8.60;3.30;;;;;;;15.24;49.25;100707.91;4971846;28;20055;-71
2022/05/31 07:09:51;;;;;;;11.23;3.50;;;;;;;15.24;49.57;100705.94;4961411;28;20057;-63
2022/05/31 07:12:30;;;;;;;;;;;;;;;15.47;49.05;100706.34;4994948;28;20050;-63
2022/05/31 07:15:16;;;;;;;10.77;3.15;;;;;;;15.65;48.61;100705.81;5008585;28;19925;-65
2022/05/31 07:18:05;;;;;;;9.18;2.70;;;;;;;15.75;46.80;100702.53;4996039;28;20059;-64
2022/05/31 07:20:34;;;;;;;9.98;2.97;;;;;;;15.92;47.11;100695.13;4976269;28;20059;-71
2022/05/31 07:23:01;;;;;;;9.00;3.10;;;;;;;16.17;46.79;100705.84;5011322;28;20062;-71
2022/05/31 07:25:32;;;;;;;8.60;2.97;;;;;;;15.57;47.62;100714.22;4994687;28;20502;-63
2022/05/31 07:28:08;;;;;;;9.55;3.00;;;;;;;15.03;49.64;100718.31;4993650;28;20050;-71
2022/05/31 07:30:37;;;;;;;9.45;3.05;;;;;;;15.08;49.88;100718.88;4977454;28;20054;-70
2022/05/31 07:33:12;;;;;;;12.73;3.25;;;;;;;15.35;49.61;100717.41;5010157;28;20058;-64
2022/05/31 07:36:05;;;;;;;8.73;3.58;;;;;;;15.62;48.95;100717.59;4994469;28;20073;-72
2022/05/31 07:38:43;;;;;;;6.38;2.70;;;;;;;16.24;48.35;100708.84;5009623;28;20050;-71
2022/05/31 07:41:10;;;;;;;11.82;3.00;;;;;;;16.48;47.68;100713.53;4993550;28;20050;-70
2022/05/31 07:43:39;;;;;;;10.45;3.30;;;;;;;16.47;47.77;100717.47;4994131;28;20090;-72
2022/05/31 07:46:13;;;;;;;11.45;3.20;;;;;;;16.62;47.62;100719.50;4994961;28;20572;-71
2022/05/31 07:48:41;;;;;;;10.77;3.45;;;;;;;16.67;47.78;100706.16;4995020;28;20061;-72
2022/05/31 07:51:28;;;;;;;17.05;5.07;;;;;;;16.73;47.70;100704.75;4993369;28;20426;-72
2022/05/31 07:54:22;;;;;;;9.90;3.15;;;;;;;16.88;46.53;100707.94;4935405;29;20063;-71
2022/05/31 08:00:14;;;;;;;6.43;2.83;;;;;;;16.63;45.76;100710.81;4949295;29;20082;-71
2022/05/31 08:02:47;;;;;;;14.23;3.33;;;;;;;16.89;45.81;100719.50;4978027;28;20050;-72
2022/05/31 08:05:15;;;;;;;7.07;2.50;;;;;;;17.29;44.83;100715.78;4993891;28;20046;-72
2022/05/31 08:07:42;;;;;;;8.70;2.72;;;;;;;17.26;44.51;100713.72;4992650;28;20045;-71
2022/05/31 08:10:10;;;;;;;11.50;2.65;;;;;;;16.95;45.37;100713.66;4995491;28;20058;-72
2022/05/31 08:12:39;;;;;;;11.75;3.03;;;;;;;16.80;46.23;100706.91;4995725;28;20054;-71
2022/05/31 08:15:07;;;;;;;7.15;2.90;;;;;;;17.38;44.90;100717.22;4995859;28;20438;-71
2022/05/31 08:17:34;;;;;;;8.85;2.47;;;;;;;17.77;43.90;100716.25;4994187;28;20545;-70
2022/05/31 08:20:04;;;;;;;11.65;2.80;;;;;;;17.70;44.26;100713.31;4976390;28;20058;-72
2022/05/31 08:22:33;;;;;;;11.63;2.85;;;;;;;17.44;44.00;100717.75;4980947;28;20050;-71
2022/05/31 08:25:02;;;;;;;10.82;2.63;;;;;;;17.97;43.13;100709.56;4978382;28;20050;-71
2022/05/31 08:27:29;;;;;;;7.35;2.90;;;;;;;18.42;43.17;100702.63;4993877;28;20090;-73
2022/05/31 08:29:56;;;;;;;10.30;2.65;;;;;;;18.23;42.00;100708.97;4995313;28;20091;-71
2022/05/31 08:32:44;;;;;;;13.45;2.90;;;;;;;18.14;42.51;100702.78;5008073;28;20502;-72
2022/05/31 08:35:11;;;;;;;13.65;2.88;;;;;;;18.08;42.58;100706.22;4995144;28;20054;-72
2022/05/31 08:37:38;;;;;;;8.40;2.67;;;;;;;18.43;42.38;100704.25;4990514;28;20063;-70
2022/05/31 08:40:06;;;;;;;9.95;2.72;;;;;;;18.85;41.85;100703.13;4993827;28;20054;-70
2022/05/31 08:42:53;;;;;;;11.50;5.30;;;;;;;19.43;40.80;100700.22;4993996;28;20058;-72
2022/05/31 08:45:57;;;;;;;12.02;4.30;;;;;;;19.49;39.49;100696.72;4974957;28;20053;-72
2022/05/31 08:48:33;;;;;;;6.43;2.30;;;;;;;19.77;38.95;100697.19;4915692;29;20060;-71
2022/05/31 08:56:56;;;;;;;11.43;2.37;;;;;;;18.57;40.57;100698.94;4994575;28;20050;-64
2022/05/31 08:59:40;;;;;;;9.20;2.22;;;;;;;19.38;40.04;100703.31;4997741;28;20062;-65
2022/05/31 09:02:32;;;;;;;7.13;2.22;;;;;;;19.52;39.01;100700.78;4997196;28;20066;-64
2022/05/31 09:05:22;;;;;;;9.65;2.88;;;;;;;19.08;39.18;100698.38;4977365;28;20054;-65
2022/05/31 09:07:57;;;;;;;10.30;3.35;;;;;;;19.15;39.41;100705.25;5012199;28;20054;-63
2022/05/31 09:10:56;;;;;;;5.82;1.55;;;;;;;18.66;37.68;100700.34;4997106;28;20055;-63
2022/05/31 09:13:33;;;;;;;5.50;1.60;;;;;;;18.53;38.12;100701.66;4998608;28;20050;-64
2022/05/31 09:16:17;;;;;;;7.03;1.75;;;;;;;18.57;38.58;100710.91;5011899;28;20055;-63
2022/05/31 09:18:51;;;;;;;6.63;2.17;;;;;;;18.35;39.50;100706.03;4988360;28;20059;-71
2022/05/31 09:21:27;;;;;;;10.27;1.80;;;;;;;18.65;38.18;100709.09;4951944;29;20062;-71
2022/05/31 09:23:55;;;;;;;6.63;1.85;;;;;;;18.69;37.51;100707.19;4958477;29;20483;-71
2022/05/31 09:26:28;;;;;;;9.13;1.88;;;;;;;18.36;38.43;100702.06;4960826;28;20051;-71
2022/05/31 09:29:14;;;;;;;5.30;1.88;;;;;;;18.58;37.87;100711.72;4974346;28;20055;-72
2022/05/31 09:32:05;;;;;;;6.50;2.22;;;;;;;19.06;37.78;100705.50;4958385;29;20055;-72
2022/05/31 09:34:39;;;;;;;7.82;1.60;;;;;;;19.36;37.05;100709.28;4974263;28;20055;-72
2022/05/31 09:37:12;;;;;;;10.27;1.88;;;;;;;19.58;36.12;100707.69;4968485;28;20057;-71
2022/05/31 09:40:02;;;;;;;5.65;1.95;;;;;;;19.72;36.11;100705.91;4998205;28;20046;-71
2022/05/31 09:42:39;;;;;;;9.35;1.60;;;;;;;19.50;35.59;100701.16;4997129;28;20054;-71
2022/05/31 09:45:10;;;;;;;6.75;2.50;;;;;;;19.55;35.68;100700.03;4996522;28;20405;-72
2022/05/31 09:47:38;;;;;;;5.60;1.88;;;;;;;20.22;34.92;100695.50;4997069;28;20062;-71
2022/05/31 09:50:06;;;;;;;11.85;1.80;;;;;;;20.19;34.71;100690.66;4997301;28;20050;-71
2022/05/31 09:52:47;;;;;;;7.80;1.50;;;;;;;19.86;34.01;100692.16;4998179;28;20110;-71
2022/05/31 09:58:37;;;;;;;4.40;1.33;;;;;;;19.32;34.79;100696.44;4997330;28;20050;-71
2022/05/31 10:01:49;;;;;;;4.15;1.70;;;;;;;19.96;34.69;100688.69;4955788;28;20065;-72
2022/05/31 10:04:29;;;;;;;4.45;1.58;;;;;;;20.22;32.99;100685.13;4963876;28;20538;-72
2022/05/31 10:07:01;;;;;;;5.93;1.70;;;;;;;19.94;32.65;100690.28;4997041;28;20057;-72
2022/05/31 10:09:37;;;;;;;6.47;2.55;;;;;;;20.04;32.02;100690.44;4994895;28;20050;-72
2022/05/31 10:12:13;;;;;;;6.22;1.60;;;;;;;19.75;33.03;100690.38;5012384;28;20493;-71
2022/05/31 10:14:41;;;;;;;;;;;;;;;19.65;32.87;100691.81;4998701;28;20046;-70
2022/05/31 10:17:27;;;;;;;5.70;1.83;;;;;;;19.18;33.86;100698.97;4980144;28;20301;-71
2022/05/31 10:20:19;;;;;;;5.70;1.60;;;;;;;19.46;34.23;100697.47;4995053;28;20050;-71
2022/05/31 10:22:54;;;;;;;5.18;2.03;;;;;;;19.54;33.81;100699.22;5012540;28;20535;-71
2022/05/31 10:25:44;;;;;;;11.27;5.70;;;;;;;19.47;32.66;100693.53;4997354;28;20054;-71
2022/05/31 10:29:06;;;;;;;10.60;3.13;;;;;;;18.89;33.26;100694.81;4995492;28;20378;-71
2022/05/31 10:31:48;;;;;;;9.73;3.67;;;;;;;18.67;33.39;100693.59;4991981;28;20065;-72
2022/05/31 10:34:27;;;;;;;6.15;2.22;;;;;;;18.85;33.54;100693.94;4996221;28;20149;-73
2022/05/31 10:36:57;;;;;;;7.65;2.25;;;;;;;19.24;33.64;100694.66;4997258;28;20058;-74
2022/05/31 10:39:28;;;;;;;7.38;2.40;;;;;;;19.59;33.60;100690.53;4997226;28;20073;-72
2022/05/31 10:41:58;;;;;;;7.18;2.60;;;;;;;19.92;32.63;100689.84;5009746;28;20053;-72
2022/05/31 10:44:40;;;;;;;9.13;2.30;;;;;;;20.17;32.46;100682.66;4956482;28;20609;-72
2022/05/31 10:47:17;;;;;;;5.53;2.58;;;;;;;20.44;32.69;100686.19;4980547;28;20414;-70
2022/05/31 10:49:45;;;;;;;8.82;3.05;;;;;;;20.61;33.02;100688.41;4977265;28;20062;-71
2022/05/31 10:52:31;;;;;;;9.32;3.90;;;;;;;20.80;32.65;100685.44;4978632;28;20845;-65
2022/05/31 10:55:16;;;;;;;10.85;3.70;;;;;;;20.80;32.01;100682.66;4995461;28;20417;-65
2022/05/31 10:57:44;;;;;;;9.45;3.83;;;;;;;20.60;33.06;100687.59;4996365;28;20061;-65
2022/05/31 11:00:17;;;;;;;17.33;12.68;;;;;;;20.50;31.70;100684.69;4995633;28;20054;-66
2022/05/31 11:03:00;;;;;;;9.52;6.00;;;;;;;20.90;31.10;100688.34;4995791;28;20062;-65
2022/05/31 11:05:40;;;;;;;9.45;4.95;;;;;;;20.73;30.90;100693.75;4992686;28;20502;-66
2022/05/31 11:11:33;;;;;;;3.47;1.67;;;;;;;20.22;31.40;100685.13;5011120;28;20062;-63
2022/05/31 11:14:22;;;;;;;4.75;1.95;;;;;;;20.30;32.44;100695.22;4978842;28;20065;-64
2022/05/31 11:17:00;;;;;;;9.48;2.28;;;;;;;20.14;33.22;100694.53;4972272;28;20047;-64
2022/05/31 11:19:33;;;;;;;8.25;1.50;;;;;;;19.80;33.87;100704.84;4973977;28;20059;-65
2022/05/31 11:22:03;;;;;;;4.53;1.63;;;;;;;19.24;34.47;100703.03;4972608;28;20669;-64
2022/05/31 11:24:46;;;;;;;8.52;2.08;;;;;;;19.50;35.10;100709.53;4967720;28;20059;-64
2022/05/31 11:27:33;;;;;;;11.35;2.03;;;;;;;20.01;33.93;100705.16;4983483;28;20060;-65
2022/05/31 11:30:11;;;;;;;6.10;2.42;;;;;;;20.40;33.04;100699.34;4996240;28;20049;-64
2022/05/31 11:32:48;;;;;;;4.80;2.10;;;;;;;20.39;32.44;100692.94;5010370;28;20057;-65
2022/05/31 11:35:25;;;;;;;9.38;3.08;;;;;;;20.69;32.23;100695.72;4996149;28;20054;-65
2022/05/31 11:38:21;;;;;;;6.63;2.47;;;;;;;20.98;32.18;100692.03;4992255;28;20050;-65
2022/05/31 11:41:21;;;;;;;5.32;2.28;;;;;;;21.01;31.38;100699.69;4958916;28;20061;-66
2022/05/31 11:44:03;;;;;;;;;;;;;;;20.66;32.88;100705.66;4957724;28;20066;-65
2022/05/31 11:46:43;;;;;;;5.47;2.58;;;;;;;20.08;33.30;100702.44;4978874;28;20399;-65
2022/05/31 11:49:46;;;;;;;5.82;2.42;;;;;;;19.77;33.85;100713.19;4994009;28;20062;-66
2022/05/31 11:52:25;;;;;;;8.98;2.50;;;;;;;19.65;34.05;100710.59;4992049;28;20058;-66
2022/05/31 11:55:26;;;;;;;5.63;1.98;;;;;;;19.62;34.08;100711.31;4978049;28;20062;-65
2022/05/31 11:58:16;;;;;;;6.50;3.10;;;;;;;19.64;34.16;100709.78;4993947;28;20053;-65
2022/05/31 12:01:14;;;;;;;14.93;4.77;;;;;;;19.82;33.20;100715.66;4992923;28;20061;-65
2022/05/31 12:04:20;;;;;;;11.52;2.33;;;;;;;19.47;33.93;100710.28;4976319;28;20054;-65
2022/05/31 12:06:54;;;;;;;6.85;1.83;;;;;;;19.83;33.32;100704.09;4971188;28;20054;-65
2022/05/31 12:09:37;;;;;;;7.32;1.60;;;;;;;20.38;32.57;100696.13;4994227;28;20058;-65
2022/05/31 12:12:15;;;;;;;6.10;1.50;;;;;;;20.35;32.06;100700.47;4995774;28;20053;-64
2022/05/31 12:14:54;;;;;;;3.55;1.42;;;;;;;20.13;31.92;100698.53;4992833;28;20054;-65
2022/05/31 12:18:01;;;;;;;5.78;1.42;;;;;;;19.95;32.19;100700.25;5010391;28;20042;-66
2022/05/31 12:20:56;;;;;;;4.25;1.30;;;;;;;19.88;32.08;100706.56;4941413;28;20059;-64
2022/05/31 12:23:32;;;;;;;5.68;1.60;;;;;;;20.13;32.06;100701.34;4995503;28;20070;-65
2022/05/31 12:26:04;;;;;;;5.80;1.48;;;;;;;20.21;31.54;100700.28;4994209;28;20058;-64
2022/05/31 12:28:45;;;;;;;3.95;1.30;;;;;;;20.28;31.31;100696.75;4975910;28;20046;-65
2022/05/31 12:31:21;;;;;;;5.40;1.27;;;;;;;20.10;31.98;100691.69;5013157;28;20065;-64